Rechercher aéroport 
image banner adimage banner adimage banner ad
image banner ad

21CL - La County Sheriff Lancaster Stn

Situé à Lancaster, United States

ICAO - 21CL, IATA -

Données fournies par Airmate  

Information générale

Coordonnées: N34°42'1" W118°8'17"
Élévation : 2367 feet MSL.
Variation magnétique : 14° East
Voir autres Aéroports à California

Données opérationnelles

Special qualification required
Heure actuelle UTC:
Heure actuelle locale:
Météo à : KWJF - General Wm J Fox Airfield ( 9 km )
METAR: KWJF 020556Z AUTO 24012KT 10SM CLR 28/01 A3008 RMK AO2 SLP161 T02830006 10378 20283 51013
TAF: KWJF 020533Z 0206/0306 23010KT P6SM SKC FM021000 VRB03KT P6SM SKC FM022100 24015G22KT P6SM SKC FM030300 24012KT P6SM SKC
Voir NOTAMs / SUP AIP / TFR affectant cet aéroport [VIEW]
Fréquences de communication: [VIEW]

Pistes:

Coordonnées de l'aéroport

Adresse: Lancaster United States

Vue satellite de 21CL